Evergreen, AL (36401)

4:52 PM CDT on September 01, 2015 (GMT -0500)
Middleton | | Change Station
CLOSE
Current Station
Airport
Location: Evergreen,
Elevation: 256 ft
Nearby Weather Stations

Elev 256 ft 31.42 °N, 87.04 °W | Updated 59 minutes ago

Partly Cloudy
Partly Cloudy
95 °F
Feels Like 99 °F
N
7
Wind Variable Wind from ENE

Today
High -- | Low -- °F
--% Chance of Precip.
Yesterday
High -- | Low -- °F
Precip. -- in
6:23 AM 7:11 PM
Waning Gibbous, 86% visible
Pressure 30.02 in
Visibility 10.0 miles
Clouds Few 5500 ft
Heat Index 99 °F
Dew Point 67 °F
Humidity 40%
Rainfall 0.00 in
Snow Depth Not available.
UV 6 out of 12
Pollen 8.90 out of 12
Air Quality Not available.
Flu Activity Not available.
METAR KGZH 012053Z AUTO 07006KT 10SM FEW055 35/19 A3003 RMK AO2 SLP164 T03500194 58014
Pressure 30.02 in
Visibility 10.0 miles
Clouds Few 5500 ft
Heat Index 99 °F
Dew Point 67 °F
Humidity 40%
Rainfall 0.00 in
Snow Depth Not available.
UV 6 out of 12
Pollen 8.90 out of 12
Air Quality Not available.
Flu Activity Not available.
METAR KGZH 012053Z AUTO 07006KT 10SM FEW055 35/19 A3003 RMK AO2 SLP164 T03500194 58014

10-Day Weather Forecast

×

Almanac

Astronomy

Sep. 01, 2015 Rise Set
Actual Time
Civil Twilight
Nautical Twilight
Astronomical Twilight
Moon
Length of Visible Light
Length of Day
Tomorrow will be .
, % of the Moon is Illuminated

Today's Extremes

State Highs State Lows

Community

WunderPhotos

Upload Photos

1,851,628 photos uploaded!

WunderBlogs® & News

Nearby

Air Quality

  Air Quality AQ Index Pollutant
Not available.

Snow Depth

Station Depth Elevation

Earthquake Activity

City Distance Mag. Time & Date
Minimum magnitude displayed is 2.5.

Coastal Water Temperatures

Place Temperature

Stations

Nearby Weather Stations

Station Location Temp. Windchill Dew Point Humidity Wind Precip. Elev Updated Type